Time;durP1;ratioP1;P1;durP2;ratioP2;P2;SDS_P1;SDS_P2;PMS_P1;PMS_P2;Temp;Humidity;BMP_temperature;BMP_pressure;BME280_temperature;BME280_humidity;BME280_pressure;Samples;Min_cycle;Max_cycle;Signal;HPM_P1;HPM_P2
2021/01/10 00:01:19;;;;;;;;;;;3.40;99.90;;;2.84;88.03;99820.25;5093447;28;20004;-63
2021/01/10 00:03:46;;;;;;;;;;;3.40;99.90;;;2.84;87.93;99814.09;5093942;28;20300;-64
2021/01/10 00:06:13;;;;;;;;;;;3.40;99.90;;;2.81;88.27;99812.75;5093129;28;20440;-63
2021/01/10 00:08:41;;;;;;;;;;;3.40;99.90;;;2.81;88.19;99818.09;5093691;28;19931;-63
2021/01/10 00:11:08;;;;;;;;;;;3.40;99.90;;;2.79;88.27;99809.56;5093008;28;20042;-63
2021/01/10 00:13:35;;;;;;;;;;;3.40;99.90;;;2.80;88.37;99808.47;5093302;28;19928;-64
2021/01/10 00:16:02;;;;;;;;;;;3.30;99.90;;;2.82;88.60;99811.72;5092811;28;19928;-63
2021/01/10 00:18:29;;;;;;;;;;;3.40;99.90;;;2.84;88.15;99809.56;5093466;28;20360;-63
2021/01/10 00:20:57;;;;;;;;;;;3.40;99.90;;;2.85;87.88;99811.19;5075264;28;19924;-63
2021/01/10 00:23:24;;;;;;;;;;;3.40;99.90;;;2.85;88.40;99808.50;5093287;28;19924;-63
2021/01/10 00:25:52;;;;;;;;;;;3.40;99.90;;;2.87;88.31;99802.91;5074576;28;19924;-63
2021/01/10 00:28:19;;;;;;;;;;;3.40;99.90;;;2.86;88.49;99810.09;5093455;28;19935;-63
2021/01/10 00:30:46;;;;;;;;;;;3.40;99.90;;;2.85;88.15;99807.72;5092918;28;19928;-63
2021/01/10 00:33:13;;;;;;;;;;;3.40;99.90;;;2.87;88.17;99797.56;5093358;28;20294;-63
2021/01/10 00:35:40;;;;;;;;;;;3.40;99.90;;;2.86;88.21;99791.41;5074807;28;19924;-63
2021/01/10 00:38:08;;;;;;;;;;;3.40;99.90;;;2.83;87.97;99799.94;5093421;28;20359;-63
2021/01/10 00:40:35;;;;;;;;;;;3.40;99.90;;;2.83;88.46;99797.28;5092563;28;19928;-63
2021/01/10 00:43:04;;;;;;;;;;;3.30;99.90;;;2.81;88.10;99799.41;5075315;28;19931;-63
2021/01/10 00:45:31;;;;;;;;;;;3.30;99.90;;;2.78;88.70;99807.16;5092539;28;19939;-63
2021/01/10 00:47:58;;;;;;;;;;;3.30;99.90;;;2.77;89.14;99808.22;5092957;28;20332;-63
2021/01/10 00:50:26;;;;;;;;;;;3.30;99.90;;;2.68;89.35;99807.91;5092694;28;19931;-63
2021/01/10 00:52:53;;;;;;;;;;;3.30;99.90;;;2.71;89.90;99810.06;5092862;28;19924;-63
2021/01/10 00:55:21;;;;;;;;;;;3.30;99.90;;;2.62;90.37;99800.97;5092413;28;19931;-63
2021/01/10 00:57:47;;;;;;;;;;;3.20;99.90;;;2.66;90.80;99802.03;5092763;28;19928;-63
2021/01/10 01:00:18;;;;;;;;;;;3.30;99.90;;;2.69;90.95;99804.19;5092586;28;20341;-63
2021/01/10 01:02:48;;;;;;;;;;;3.20;99.90;;;2.69;91.62;99801.53;5092716;28;19970;-63
2021/01/10 01:05:15;;;;;;;;;;;3.20;99.90;;;2.73;91.56;99802.59;5092552;28;19931;-63
2021/01/10 01:07:42;;;;;;;;;;;3.30;99.90;;;2.69;91.42;99801.53;5092365;28;20279;-64
2021/01/10 01:10:11;;;;;;;;;;;3.30;99.90;;;2.68;91.53;99802.56;5057993;28;19931;-64
2021/01/10 01:12:38;;;;;;;;;;;3.30;99.90;;;2.68;91.50;99802.56;5057881;28;19931;-63
2021/01/10 01:15:07;;;;;;;;;;;3.30;99.90;;;2.72;91.31;99809.00;5074506;28;19924;-64
2021/01/10 01:17:36;;;;;;;;;;;;;;;2.77;91.07;99800.22;5091938;28;19928;-63
2021/01/10 01:20:04;;;;;;;;;;;3.30;99.90;;;2.79;90.48;99806.09;5092339;28;19925;-63
2021/01/10 01:22:31;;;;;;;;;;;3.30;99.90;;;2.73;90.44;99805.28;5092160;28;20297;-63
2021/01/10 01:24:59;;;;;;;;;;;3.30;99.90;;;2.70;90.45;99793.25;5091793;28;19932;-63
2021/01/10 01:27:26;;;;;;;;;;;3.30;99.90;;;2.69;90.63;99797.00;5074145;28;20272;-62
2021/01/10 01:29:56;;;;;;;;;;;3.20;99.90;;;2.68;90.95;99794.56;5092203;28;19942;-63
2021/01/10 01:32:23;;;;;;;;;;;3.20;99.90;;;2.71;90.77;99794.03;5092105;28;19935;-63
2021/01/10 01:34:51;;;;;;;;;;;3.20;99.90;;;2.71;90.54;99802.06;5092165;28;19924;-63
2021/01/10 01:37:18;;;;;;;;;;;3.30;99.90;;;2.72;90.74;99798.31;5073933;28;20006;-63
2021/01/10 01:39:45;;;;;;;;;;;3.30;99.90;;;2.76;90.90;99802.09;5092106;28;19936;-63
2021/01/10 01:42:15;;;;;;;;;;;3.30;99.90;;;2.75;90.69;99800.47;5074206;28;19931;-63
2021/01/10 01:44:42;;;;;;;;;;;3.30;99.90;;;2.80;90.38;99805.81;5091957;28;19993;-63
2021/01/10 01:47:10;;;;;;;;;;;3.30;99.90;;;2.79;90.34;99806.91;5091672;28;19924;-63
2021/01/10 01:49:37;;;;;;;;;;;3.40;99.90;;;2.82;90.64;99798.38;5091750;28;19924;-63
2021/01/10 01:52:06;;;;;;;;;;;3.40;99.90;;;2.85;90.55;99802.38;5091961;28;19982;-63
2021/01/10 01:54:33;;;;;;;;;;;3.40;99.90;;;2.85;90.18;99805.03;5091999;28;19924;-63
2021/01/10 01:57:00;;;;;;;;;;;3.40;99.90;;;2.85;89.97;99805.84;5091603;28;19985;-63
2021/01/10 01:59:27;;;;;;;;;;;3.40;99.90;;;2.85;89.83;99800.50;5091631;28;19928;-64
2021/01/10 02:01:54;;;;;;;;;;;3.40;99.90;;;2.86;90.06;99803.97;5091883;28;19924;-63
2021/01/10 02:04:29;;;;;;;;;;;3.40;99.90;;;2.84;90.08;99806.09;5091822;28;19925;-63
2021/01/10 02:07:00;;;;;;;;;;;3.40;99.90;;;2.84;90.34;99804.22;5091266;28;19925;-63
2021/01/10 02:09:27;;;;;;;;;;;3.40;99.90;;;2.85;90.34;99805.03;5091769;28;19924;-63
2021/01/10 02:11:58;;;;;;;;;;;3.40;99.90;;;2.82;90.38;99805.56;5091593;28;19931;-63
2021/01/10 02:14:26;;;;;;;;;;;3.40;99.90;;;2.74;89.96;99806.88;5091686;28;19931;-63
2021/01/10 02:16:54;;;;;;;;;;;3.30;99.90;;;2.64;89.80;99807.66;5091094;28;19993;-64
2021/01/10 02:19:25;;;;;;;;;;;3.20;99.90;;;2.54;90.16;99804.13;5091565;28;19928;-63
2021/01/10 02:21:57;;;;;;;;;;;3.20;99.90;;;2.45;90.51;99819.84;5091405;28;20282;-63
2021/01/10 02:24:25;;;;;;;;;;;3.10;99.90;;;2.39;90.80;99820.09;5091547;28;20441;-63
2021/01/10 02:26:52;;;;;;;;;;;3.00;99.90;;;2.36;91.35;99817.94;5091377;28;19927;-63
2021/01/10 02:29:20;;;;;;;;;;;3.00;99.90;;;2.25;91.02;99816.31;5091444;28;19931;-63
2021/01/10 02:31:49;;;;;;;;;;;2.90;99.90;;;2.17;91.23;99815.72;5091481;28;19977;-63
2021/01/10 02:34:16;;;;;;;;;;;2.80;99.90;;;2.12;91.39;99817.56;5091431;28;20252;-63
2021/01/10 02:36:56;;;;;;;;;;;2.80;99.90;;;2.05;92.00;99817.78;5072727;28;19924;-64
2021/01/10 02:39:30;;;;;;;;;;;2.70;99.90;;;2.08;92.21;99822.59;5091417;28;20058;-64
2021/01/10 02:42:06;;;;;;;;;;;2.70;99.90;;;2.15;92.13;99817.84;5091350;28;20369;-63
2021/01/10 02:44:37;;;;;;;;;;;2.80;99.90;;;2.17;91.19;99821.06;5071500;28;19935;-63
2021/01/10 02:47:05;;;;;;;;;;;2.80;99.90;;;2.06;91.49;99816.75;5090988;28;20355;-63
2021/01/10 02:49:34;;;;;;;;;;;2.70;99.90;;;2.03;91.64;99825.25;5091085;28;19966;-63
2021/01/10 02:52:01;;;;;;;;;;;2.70;99.90;;;1.97;91.31;99826.28;5091082;28;20367;-63
2021/01/10 02:54:29;;;;;;;;;;;2.60;99.90;;;1.92;91.54;99826.22;5091181;28;19935;-63
2021/01/10 02:56:59;;;;;;;;;;;2.50;99.90;;;1.78;91.39;99827.75;5090582;28;19931;-63
2021/01/10 02:59:28;;;;;;;;;;;2.50;99.90;;;1.71;91.31;99837.00;5091422;28;19931;-62
2021/01/10 03:01:56;;;;;;;;;;;2.40;99.90;;;1.68;92.13;99841.00;5090869;28;19957;-63
2021/01/10 03:04:24;;;;;;;;;;;2.30;99.90;;;1.66;92.22;99840.44;5091016;28;19932;-63
2021/01/10 03:06:54;;;;;;;;;;;2.30;99.90;;;1.69;92.17;99839.13;5090628;28;19924;-63
2021/01/10 03:09:21;;;;;;;;;;;2.40;99.90;;;1.71;92.25;99850.31;5089566;28;19974;-63
2021/01/10 03:11:49;;;;;;;;;;;2.40;99.90;;;1.72;91.63;99844.75;5074204;28;19928;-64
2021/01/10 03:14:16;;;;;;;;;;;2.40;99.90;;;1.78;90.74;99840.25;5091053;28;19928;-63
2021/01/10 03:16:44;;;;;;;;;;;2.40;99.90;;;1.83;90.47;99846.44;5072371;28;20213;-63
2021/01/10 03:19:11;;;;;;;;;;;2.50;99.90;;;1.88;90.46;99846.47;5090993;28;20357;-63
2021/01/10 03:21:38;;;;;;;;;;;2.50;99.90;;;1.90;89.81;99836.34;5090556;28;19932;-63
2021/01/10 03:24:05;;;;;;;;;;;2.50;99.90;;;1.93;89.41;99841.19;5091034;28;19924;-63
2021/01/10 03:26:32;;;;;;;;;;;2.60;99.90;;;1.99;89.10;99834.81;5090396;28;19969;-63
2021/01/10 03:29:00;;;;;;;;;;;2.60;99.90;;;2.02;88.25;99828.16;5090783;28;19925;-63
2021/01/10 03:31:28;;;;;;;;;;;2.60;99.90;;;2.07;87.91;99838.84;5090514;28;19932;-63
2021/01/10 03:33:55;;;;;;;;;;;2.70;99.90;;;2.11;87.87;99832.75;5073111;28;19924;-63
2021/01/10 03:36:21;;;;;;;;;;;2.70;99.90;;;2.18;86.41;99830.66;5089908;28;20367;-63
2021/01/10 03:38:49;;;;;;;;;;;2.80;99.90;;;2.08;86.06;99827.94;5090821;28;19931;-63
2021/01/10 03:41:16;;;;;;;;;;;2.70;99.90;;;2.03;86.60;99830.59;5072517;28;19925;-63
2021/01/10 03:43:43;;;;;;;;;;;2.70;99.90;;;2.02;86.78;99834.31;5072687;28;19925;-63
2021/01/10 03:46:11;;;;;;;;;;;2.70;99.90;;;2.06;86.56;99835.41;5089814;28;19924;-63
2021/01/10 03:48:38;;;;;;;;;;;2.70;99.90;;;2.05;86.17;99833.78;5073935;28;19924;-62
2021/01/10 03:51:06;;;;;;;;;;;2.70;99.90;;;2.09;85.89;99834.88;5093568;28;19924;-63
2021/01/10 03:53:33;;;;;;;;;;;2.70;99.90;;;2.16;85.31;99830.09;5094032;28;19984;-63
2021/01/10 03:56:00;;;;;;;;;;;2.80;99.90;;;2.19;85.07;99832.25;5093092;28;19928;-63
2021/01/10 03:58:27;;;;;;;;;;;2.80;99.90;;;2.31;85.24;99832.03;5093775;28;19928;-63
2021/01/10 04:00:54;;;;;;;;;;;2.90;99.90;;;2.45;84.50;99835.88;5075228;28;20375;-63
2021/01/10 04:03:22;;;;;;;;;;;3.00;99.90;;;2.59;83.85;99820.97;5093978;28;19928;-63
2021/01/10 04:05:49;;;;;;;;;;;3.20;99.90;;;2.68;82.80;99822.06;5093029;28;19928;-63
2021/01/10 04:08:16;;;;;;;;;;;3.30;99.90;;;2.72;82.46;99823.16;5093828;28;19928;-63
2021/01/10 04:10:43;;;;;;;;;;;3.30;99.90;;;2.78;82.39;99826.63;5075227;28;20386;-63
2021/01/10 04:13:11;;;;;;;;;;;3.40;99.90;;;2.82;81.72;99822.38;5093698;28;20884;-63
2021/01/10 04:15:38;;;;;;;;;;;3.40;99.90;;;2.82;81.76;99827.72;5074991;28;19928;-63
2021/01/10 04:18:05;;;;;;;;;;;3.50;99.90;;;2.84;81.68;99830.13;5093548;28;19935;-63
2021/01/10 04:20:33;;;;;;;;;;;3.50;99.90;;;2.83;81.15;99828.53;5075282;28;19924;-63
2021/01/10 04:23:00;;;;;;;;;;;3.40;99.90;;;2.83;81.17;99831.22;5093506;28;19957;-63
2021/01/10 04:25:27;;;;;;;;;;;3.50;99.90;;;2.86;81.04;99830.69;5075023;28;20398;-63
2021/01/10 04:27:54;;;;;;;;;;;3.50;99.90;;;2.85;80.46;99832.53;5093654;28;19935;-64
2021/01/10 04:30:21;;;;;;;;;;;3.50;99.90;;;2.84;80.77;99830.13;5092924;28;20375;-63
2021/01/10 04:32:50;;;;;;;;;;;3.50;99.90;;;2.84;80.26;99824.78;5075537;28;19931;-63
2021/01/10 04:35:17;;;;;;;;;;;3.50;99.90;;;2.86;80.17;99833.34;5075093;28;19928;-63
2021/01/10 04:37:44;;;;;;;;;;;3.50;99.90;;;2.83;80.14;99829.31;5093220;28;20382;-63
2021/01/10 04:40:12;;;;;;;;;;;3.40;99.90;;;2.84;79.80;99838.94;5092767;28;19924;-63
2021/01/10 04:42:39;;;;;;;;;;;3.50;99.90;;;2.85;79.54;99843.22;5075069;28;19928;-63
2021/01/10 04:45:07;;;;;;;;;;;3.50;99.90;;;2.85;79.49;99845.91;5093026;28;20344;-63
2021/01/10 04:47:35;;;;;;;;;;;3.50;99.90;;;2.87;79.27;99838.41;5092595;28;19932;-63
2021/01/10 04:50:03;;;;;;;;;;;3.50;99.90;;;2.85;78.97;99843.22;5092896;28;19924;-63
2021/01/10 04:52:30;;;;;;;;;;;3.50;99.90;;;2.83;79.44;99856.00;5092722;28;19935;-63
2021/01/10 04:55:01;;;;;;;;;;;3.50;99.90;;;2.83;79.17;99848.00;5093049;28;20398;-63
2021/01/10 04:57:32;;;;;;;;;;;3.50;99.90;;;2.85;79.30;99850.44;5092405;28;20019;-63
2021/01/10 05:00:00;;;;;;;;;;;3.50;99.90;;;2.87;79.30;99862.44;5091570;28;20324;-63
2021/01/10 05:02:28;;;;;;;;;;;3.50;99.90;;;2.87;79.19;99857.09;5092871;28;19974;-63
2021/01/10 05:04:55;;;;;;;;;;;3.50;99.90;;;2.91;79.40;99854.72;5092841;28;20272;-63
2021/01/10 05:07:22;;;;;;;;;;;3.50;99.90;;;2.92;79.21;99854.44;5092096;28;19924;-63
2021/01/10 05:09:49;;;;;;;;;;;3.50;99.90;;;3.00;78.88;99861.16;5092576;28;19920;-64
2021/01/10 05:12:17;;;;;;;;;;;3.60;99.90;;;3.02;78.85;99861.69;5092580;28;19947;-63
2021/01/10 05:14:44;;;;;;;;;;;3.60;99.90;;;2.98;78.56;99858.72;5074712;28;19931;-63
2021/01/10 05:17:20;;;;;;;;;;;3.60;99.90;;;2.96;79.12;99860.06;5073973;28;19924;-63
2021/01/10 05:19:47;;;;;;;;;;;3.60;99.90;;;2.95;78.95;99859.25;5092365;28;20001;-63
2021/01/10 05:22:15;;;;;;;;;;;3.60;99.90;;;2.93;79.11;99860.59;5092266;28;19936;-63
2021/01/10 05:24:42;;;;;;;;;;;3.60;99.90;;;2.94;79.24;99860.34;5092845;28;19924;-63
2021/01/10 05:27:09;;;;;;;;;;;3.60;99.90;;;2.95;79.21;99863.81;5091963;28;19931;-64
2021/01/10 05:29:37;;;;;;;;;;;3.60;99.90;;;2.96;79.14;99865.41;5092266;28;19924;-63
2021/01/10 05:32:05;;;;;;;;;;;3.60;99.90;;;2.97;79.35;99867.81;5092093;28;19935;-63
2021/01/10 05:34:32;;;;;;;;;;;3.60;99.90;;;3.01;79.34;99862.75;5092533;28;20224;-63
2021/01/10 05:37:12;;;;;;;;;;;3.70;99.90;;;3.07;79.26;99862.50;5073696;28;20363;-64
2021/01/10 05:39:44;;;;;;;;;;;3.70;99.90;;;3.10;79.06;99869.19;5092373;28;19924;-63
2021/01/10 05:42:12;;;;;;;;;;;3.70;99.90;;;3.12;79.06;99869.72;5092011;28;19928;-64
2021/01/10 05:44:51;;;;;;;;;;;3.70;99.90;;;3.10;79.44;99869.97;5092204;28;19928;-63
2021/01/10 05:47:19;;;;;;;;;;;3.80;99.90;;;3.07;79.58;99862.50;5091547;28;19924;-63
2021/01/10 05:49:46;;;;;;;;;;;3.70;99.90;;;3.06;80.57;99870.78;5092048;28;19924;-63
2021/01/10 05:52:14;;;;;;;;;;;3.70;99.90;;;3.04;81.15;99878.25;5091761;28;19928;-64
2021/01/10 05:54:42;;;;;;;;;;;3.70;99.90;;;3.01;81.22;99874.22;5092107;28;19978;-63
2021/01/10 05:57:10;;;;;;;;;;;3.70;99.90;;;3.03;81.13;99879.31;5091355;28;19928;-63
2021/01/10 05:59:38;;;;;;;;;;;3.70;99.90;;;3.09;81.38;99884.41;5092044;28;19928;-65
2021/01/10 06:02:06;;;;;;;;;;;3.70;99.90;;;3.11;81.21;99884.13;5091589;28;19932;-63
2021/01/10 06:04:34;;;;;;;;;;;3.80;99.90;;;3.12;82.28;99891.91;5092075;28;19928;-63
2021/01/10 06:07:01;;;;;;;;;;;3.80;99.90;;;3.18;82.31;99893.53;5073336;28;20014;-62
2021/01/10 06:09:28;;;;;;;;;;;3.80;99.90;;;3.23;82.02;99900.72;5073559;28;19977;-63
2021/01/10 06:11:55;;;;;;;;;;;3.90;99.90;;;3.29;81.82;99905.03;5091231;28;19985;-63
2021/01/10 06:14:24;;;;;;;;;;;3.90;99.90;;;3.31;81.34;99901.00;5092075;28;19924;-63
2021/01/10 06:16:56;;;;;;;;;;;3.90;99.90;;;3.35;81.35;99917.31;5073203;28;19924;-63
2021/01/10 06:19:27;;;;;;;;;;;4.00;99.90;;;3.34;81.27;99921.09;5091659;28;19924;-64
2021/01/10 06:21:56;;;;;;;;;;;4.00;99.90;;;3.33;81.64;99922.13;5091407;28;19930;-63
2021/01/10 06:24:25;;;;;;;;;;;4.00;99.90;;;3.31;81.17;99926.97;5073667;28;19939;-63
2021/01/10 06:27:02;;;;;;;;;;;4.00;99.90;;;3.27;81.01;99931.22;5091237;28;20011;-62
2021/01/10 06:29:37;;;;;;;;;;;3.90;99.90;;;3.23;81.54;99925.59;5091241;28;19977;-63
2021/01/10 06:32:10;;;;;;;;;;;3.90;99.90;;;3.17;81.81;99934.66;5073764;28;19928;-62
2021/01/10 06:34:40;;;;;;;;;;;3.80;99.90;;;3.12;82.07;99942.66;5091653;28;19928;-63
2021/01/10 06:37:08;;;;;;;;;;;3.70;99.90;;;3.05;82.39;99944.75;5091041;28;19932;-63
2021/01/10 06:39:39;;;;;;;;;;;3.70;99.90;;;2.98;82.93;99954.88;5091101;28;19972;-63
2021/01/10 06:42:13;;;;;;;;;;;3.60;99.90;;;2.91;82.96;99946.31;5091263;28;19928;-63
2021/01/10 06:44:46;;;;;;;;;;;3.60;99.90;;;2.80;83.76;99955.31;5073970;28;19924;-63
2021/01/10 06:47:23;;;;;;;;;;;3.50;99.90;;;2.73;83.82;99955.56;5090880;28;19928;-63
2021/01/10 06:49:53;;;;;;;;;;;3.40;99.90;;;2.64;84.30;99959.81;5073168;28;19920;-63
2021/01/10 06:52:23;;;;;;;;;;;3.30;99.90;;;2.53;84.50;99962.63;5091092;28;20383;-63
2021/01/10 06:54:51;;;;;;;;;;;3.20;99.90;;;2.43;85.02;99970.59;5091214;28;20286;-63
2021/01/10 06:57:18;;;;;;;;;;;3.10;99.90;;;2.36;85.80;99978.81;5090684;28;19931;-63
2021/01/10 07:00:03;;;;;;;;;;;3.00;99.90;;;2.28;85.86;99981.94;5090946;28;19977;-62
2021/01/10 07:02:30;;;;;;;;;;;3.00;99.90;;;2.19;86.80;99980.81;5072852;28;19985;-63
2021/01/10 07:05:01;;;;;;;;;;;2.90;99.90;;;2.13;86.97;99990.63;5091093;28;19924;-63
2021/01/10 07:07:42;;;;;;;;;;;2.80;99.90;;;2.17;87.74;99993.59;5090685;28;19924;-63
2021/01/10 07:10:24;;;;;;;;;;;2.80;99.90;;;2.20;87.77;99996.56;5090691;28;19981;-63
2021/01/10 07:12:52;;;;;;;;;;;2.80;99.90;;;2.27;88.37;100006.22;5091161;28;20386;-63
2021/01/10 07:15:29;;;;;;;;;;;2.90;99.90;;;2.28;88.40;100007.84;5072744;28;19925;-63
2021/01/10 07:18:17;;;;;;;;;;;2.90;99.90;;;2.31;88.18;100010.78;5090777;28;20283;-63
2021/01/10 07:20:45;;;;;;;;;;;2.90;99.90;;;2.29;88.32;100015.56;5090672;28;19924;-63
2021/01/10 07:23:33;;;;;;;;;;;2.90;99.90;;;2.25;88.77;100030.47;5091701;28;19958;-63
2021/01/10 07:26:01;;;;;;;;;;;2.90;99.90;;;2.22;89.02;100030.97;5094007;28;19977;-63
2021/01/10 07:28:40;;;;;;;;;;;2.80;99.90;;;2.16;89.04;100029.31;5076282;28;19932;-63
2021/01/10 07:31:19;;;;;;;;;;;2.80;99.90;;;2.11;89.17;100029.28;5076721;28;20015;-63
2021/01/10 07:33:46;;;;;;;;;;;2.80;99.90;;;2.00;89.49;100041.75;5094613;28;20070;-63
2021/01/10 07:36:14;;;;;;;;;;;2.70;99.90;;;1.98;89.88;100038.50;5093881;28;19954;-63
2021/01/10 07:38:42;;;;;;;;;;;2.60;99.90;;;1.98;89.64;100054.50;5094178;28;19924;-63
2021/01/10 07:41:23;;;;;;;;;;;2.60;99.90;;;1.89;89.65;100063.19;5093732;28;19924;-63
2021/01/10 07:43:52;;;;;;;;;;;2.50;99.90;;;1.85;90.49;100073.59;5094244;28;19977;-63
2021/01/10 07:47:02;;;;;;;;;;;2.50;99.90;;;1.89;91.04;100079.19;5093574;28;20057;-63
2021/01/10 07:49:30;;;;;;;;;;;2.60;99.90;;;1.94;90.83;100087.25;5093634;28;19924;-63
2021/01/10 07:51:59;;;;;;;;;;;2.60;99.90;;;1.95;91.06;100086.19;5093549;28;20367;-63
2021/01/10 07:54:52;;;;;;;;;;;2.60;99.90;;;1.91;90.52;100093.91;5094135;28;20010;-63
2021/01/10 07:57:26;;;;;;;;;;;;;;;1.82;90.94;100091.94;5075342;28;20322;-63
2021/01/10 08:00:08;;;;;;;;;;;2.50;99.90;;;1.71;90.47;100096.31;5077169;28;19928;-63
2021/01/10 08:02:48;;;;;;;;;;;2.40;99.90;;;1.70;91.45;100097.41;5076179;28;19931;-63
2021/01/10 08:05:16;;;;;;;;;;;2.30;99.90;;;1.72;91.47;100094.47;5093866;28;20077;-63
2021/01/10 08:07:51;;;;;;;;;;;2.40;99.90;;;1.71;91.80;100111.50;5075743;28;20286;-64
2021/01/10 08:10:19;;;;;;;;;;;2.40;99.90;;;1.75;91.93;100115.28;5093591;28;19977;-63
2021/01/10 08:12:46;;;;;;;;;;;2.40;99.90;;;1.78;92.12;100115.59;5093633;28;19939;-63
2021/01/10 08:15:14;;;;;;;;;;;2.40;99.90;;;1.86;92.31;100125.81;5093452;28;19977;-63
2021/01/10 08:17:41;;;;;;;;;;;2.50;99.90;;;1.89;92.38;100127.19;5093653;28;19946;-63
2021/01/10 08:20:10;;;;;;;;;;;2.50;99.90;;;1.97;93.01;100129.44;5093107;28;19924;-63
2021/01/10 08:22:38;;;;;;;;;;;2.60;99.90;;;2.08;93.48;100136.47;5093386;28;19983;-63
2021/01/10 08:25:08;;;;;;;;;;;2.70;99.90;;;2.22;93.67;100136.88;5093519;28;19931;-63
2021/01/10 08:27:35;;;;;;;;;;;2.80;99.90;;;2.44;93.98;100141.09;5093219;28;19928;-63
2021/01/10 08:30:03;;;;;;;;;;;3.00;99.90;;;2.66;93.17;100144.50;5093181;28;19924;-63
2021/01/10 08:32:32;;;;;;;;;;;3.20;99.90;;;2.83;92.78;100138.25;5093107;28;20336;-63
2021/01/10 08:35:01;;;;;;;;;;;3.40;99.90;;;3.00;91.90;100150.38;5093260;28;19924;-63
2021/01/10 08:37:29;;;;;;;;;;;3.60;99.90;;;3.13;90.93;100159.84;5092797;28;19955;-63
2021/01/10 08:39:57;;;;;;;;;;;3.70;99.90;;;3.19;90.82;100159.59;5093187;28;19924;-64
2021/01/10 08:42:25;;;;;;;;;;;3.80;99.90;;;3.30;90.56;100166.63;5092911;28;19928;-64
2021/01/10 08:44:52;;;;;;;;;;;3.90;99.90;;;3.39;89.20;100168.81;5093458;28;19924;-63
2021/01/10 08:47:19;;;;;;;;;;;4.00;99.90;;;3.44;89.26;100168.81;5074792;28;19931;-63
2021/01/10 08:49:58;;;;;;;;;;;4.00;99.90;;;3.63;88.54;100164.66;5074787;28;19978;-63
2021/01/10 08:52:25;;;;;;;;;;;4.20;99.90;;;3.88;87.18;100172.00;5092895;28;20408;-63
2021/01/10 08:54:52;;;;;;;;;;;4.30;99.90;;;4.05;86.33;100170.72;5075400;28;19925;-64
2021/01/10 08:57:20;;;;;;;;;;;4.50;99.90;;;4.27;85.00;100187.41;5057857;28;19924;-63
2021/01/10 08:59:48;;;;;;;;;;;4.60;99.90;;;4.44;83.74;100184.47;5092753;28;19928;-63
2021/01/10 09:02:15;;;;;;;;;;;4.80;99.90;;;4.59;82.65;100189.09;5092707;28;20267;-63
2021/01/10 09:04:42;;;;;;;;;;;4.80;99.90;;;4.69;81.75;100195.25;5075137;28;19928;-63
2021/01/10 09:07:23;;;;;;;;;;;4.90;99.90;;;4.80;81.27;100204.09;5074614;28;20290;-63
2021/01/10 09:09:52;;;;;;;;;;;5.00;99.90;;;4.89;81.81;100213.22;5092570;28;20016;-64
2021/01/10 09:12:32;;;;;;;;;;;5.10;99.90;;;5.00;80.78;100227.41;5092665;28;19932;-63
2021/01/10 09:15:02;;;;;;;;;;;5.20;99.90;;;5.05;80.43;100230.09;5092804;28;19925;-63
2021/01/10 09:17:33;;;;;;;;;;;5.30;99.90;;;5.08;80.74;100224.19;5092219;28;20383;-63
2021/01/10 09:20:03;;;;;;;;;;;5.40;99.90;;;5.16;80.30;100229.84;5092360;28;19936;-63
2021/01/10 09:22:31;;;;;;;;;;;5.40;99.90;;;5.26;80.23;100235.19;5092515;28;19930;-63
2021/01/10 09:24:58;;;;;;;;;;;5.50;99.90;;;5.33;79.58;100242.97;5092720;28;19931;-63
2021/01/10 09:27:25;;;;;;;;;;;5.50;99.90;;;5.42;79.43;100250.19;5089841;28;19924;-63
2021/01/10 09:30:04;;;;;;;;;;;5.60;99.90;;;5.51;79.58;100259.31;5074388;28;19981;-63
2021/01/10 09:32:31;;;;;;;;;;;5.70;99.90;;;5.63;79.33;100250.97;5057922;28;20298;-63
2021/01/10 09:34:58;;;;;;;;;;;5.80;99.90;;;5.72;79.39;100256.59;5092309;28;19924;-63
2021/01/10 09:37:29;;;;;;;;;;;5.90;99.90;;;5.79;79.57;100260.59;5092264;28;19928;-63
2021/01/10 09:40:07;;;;;;;;;;;6.00;99.90;;;5.87;79.49;100267.31;5074429;28;19928;-64
2021/01/10 09:42:44;;;;;;;;;;;6.20;99.90;;;5.93;79.16;100282.34;5091770;28;19934;-63
2021/01/10 09:45:14;;;;;;;;;;;6.20;99.90;;;5.79;79.65;100289.31;5071320;28;19924;-63
2021/01/10 09:47:42;;;;;;;;;;;6.20;99.90;;;5.58;79.51;100285.84;5091873;28;19924;-64
2021/01/10 09:50:11;;;;;;;;;;;6.10;99.90;;;5.48;80.72;100280.50;5091744;28;20041;-63
2021/01/10 09:52:51;;;;;;;;;;;6.00;99.90;;;5.73;82.14;100287.72;5074063;28;19924;-63
2021/01/10 09:55:18;;;;;;;;;;;6.10;99.90;;;6.03;79.90;100293.06;5091577;28;19928;-63
2021/01/10 09:57:45;;;;;;;;;;;6.30;99.90;;;6.22;77.82;100286.03;5092097;28;19935;-63
2021/01/10 10:00:16;;;;;;;;;;;6.50;99.90;;;6.35;78.01;100287.31;5091704;28;20296;-63
2021/01/10 10:02:44;;;;;;;;;;;6.70;99.90;;;6.48;77.26;100292.09;5091654;28;19924;-63
2021/01/10 10:05:13;;;;;;;;;;;6.70;99.90;;;6.53;77.08;100295.59;5091815;28;19936;-63
2021/01/10 10:07:41;;;;;;;;;;;6.80;99.90;;;6.61;76.35;100291.50;5092139;28;19924;-63
2021/01/10 10:10:23;;;;;;;;;;;6.90;99.90;;;6.64;76.96;100299.00;5073380;28;19924;-64
2021/01/10 10:12:54;;;;;;;;;;;7.00;99.90;;;6.79;76.41;100303.50;5091645;28;19931;-63
2021/01/10 10:15:22;;;;;;;;;;;7.10;99.90;;;6.93;76.68;100294.53;5073173;28;19963;-63
2021/01/10 10:17:50;;;;;;;;;;;7.20;99.90;;;7.05;75.77;100305.75;5091862;28;20366;-63
2021/01/10 10:20:17;;;;;;;;;;;;;;;7.13;75.90;100309.75;5091457;28;19924;-63
2021/01/10 10:22:44;;;;;;;;;;;7.50;99.90;;;7.19;76.07;100308.63;5091323;28;19924;-63
2021/01/10 10:25:12;;;;;;;;;;;7.50;99.90;;;7.34;74.90;100315.78;5073621;28;19924;-63
2021/01/10 10:27:57;;;;;;;;;;;7.70;99.90;;;7.34;74.36;100316.59;5091460;28;20026;-63
2021/01/10 10:30:26;;;;;;;;;;;7.70;99.90;;;7.43;74.82;100311.41;5057055;28;19935;-64
2021/01/10 10:32:53;;;;;;;;;;;;;;;7.56;74.34;100318.84;5073384;28;19931;-63
2021/01/10 10:35:20;;;;;;;;;;;;;;;7.63;72.89;100324.69;5091280;28;19924;-63
2021/01/10 10:37:48;;;;;;;;;;;8.00;99.90;;;7.61;72.52;100327.69;5091501;28;19932;-63
2021/01/10 10:40:15;;;;;;;;;;;8.00;99.90;;;7.83;73.18;100331.78;5091202;28;19928;-63
2021/01/10 10:42:42;;;;;;;;;;;8.20;99.90;;;7.93;70.72;100334.41;5073286;28;19938;-63
2021/01/10 10:45:10;;;;;;;;;;;8.30;99.90;;;7.86;71.71;100331.22;5091279;28;20136;-63
2021/01/10 10:47:38;;;;;;;;;;;8.30;99.90;;;7.92;71.66;100327.41;5091251;28;19931;-63
2021/01/10 10:50:07;;;;;;;;;;;8.30;99.90;;;8.03;71.78;100331.59;5073069;28;20015;-63
2021/01/10 10:52:34;;;;;;;;;;;8.40;99.90;;;8.09;70.31;100339.34;5091014;28;19951;-63
2021/01/10 10:55:02;;;;;;;;;;;8.50;99.90;;;8.13;71.49;100339.56;5073335;28;19924;-64
2021/01/10 10:57:29;;;;;;;;;;;8.50;99.90;;;8.12;71.00;100343.34;5073029;28;20267;-63
2021/01/10 10:59:56;;;;;;;;;;;8.50;99.90;;;8.09;70.99;100338.53;5094411;28;19956;-63
2021/01/10 11:02:23;;;;;;;;;;;;;;;8.22;71.29;100335.19;5094643;28;19924;-63
2021/01/10 11:04:51;;;;;;;;;;;8.80;99.90;;;8.45;70.94;100336.31;5094872;28;19924;-63
2021/01/10 11:07:18;;;;;;;;;;;8.80;99.90;;;8.49;69.98;100327.34;5094277;28;19924;-63
2021/01/10 11:09:46;;;;;;;;;;;8.90;99.90;;;8.52;69.88;100326.78;5094529;28;19928;-63
2021/01/10 11:12:14;;;;;;;;;;;8.90;99.90;;;8.59;69.56;100323.75;5076026;28;19927;-63
2021/01/10 11:14:41;;;;;;;;;;;9.00;99.90;;;8.71;68.90;100316.03;5094703;28;19931;-63
2021/01/10 11:17:09;;;;;;;;;;;9.10;99.90;;;8.77;68.75;100321.06;5076263;28;19925;-63
2021/01/10 11:19:37;;;;;;;;;;;9.10;99.90;;;8.90;67.55;100307.97;5076683;28;19924;-63
2021/01/10 11:22:06;;;;;;;;;;;9.20;99.90;;;8.85;66.97;100303.44;5094091;28;19939;-63
2021/01/10 11:24:33;;;;;;;;;;;9.30;99.90;;;8.86;66.49;100298.84;5076923;28;19924;-63
2021/01/10 11:27:01;;;;;;;;;;;9.30;99.90;;;8.90;66.75;100310.66;5094061;28;20275;-62
2021/01/10 11:29:28;;;;;;;;;;;9.30;99.90;;;8.97;66.35;100306.50;5094468;28;19931;-63
2021/01/10 11:31:55;;;;;;;;;;;9.30;99.90;;;9.11;67.06;100309.28;5075981;28;20390;-63
2021/01/10 11:34:22;;;;;;;;;;;9.50;99.90;;;9.24;66.30;100305.88;5094317;28;19939;-63
2021/01/10 11:36:51;;;;;;;;;;;9.60;99.90;;;9.33;66.19;100294.09;5093688;28;19970;-62
2021/01/10 11:39:21;;;;;;;;;;;9.70;99.90;;;9.31;65.05;100295.47;5094338;28;20437;-63
2021/01/10 11:41:49;;;;;;;;;;;9.70;99.90;;;9.41;64.98;100298.03;5093930;28;19935;-63